Time;durP1;ratioP1;P1;durP2;ratioP2;P2;SDS_P1;SDS_P2;PMS_P1;PMS_P2;Temp;Humidity;BMP_temperature;BMP_pressure;BME280_temperature;BME280_humidity;BME280_pressure;Samples;Min_cycle;Max_cycle;Signal;HPM_P1;HPM_P2
2023/06/26 00:00:12;;;;;;;6.05;3.95;;;21.90;94.80;;;;;;5061608;28;20051;-69
2023/06/26 00:02:38;;;;;;;6.03;4.13;;;21.90;94.80;;;;;;5060711;28;20110;-69
2023/06/26 00:05:04;;;;;;;5.32;3.90;;;21.90;94.80;;;;;;5058239;28;20044;-69
2023/06/26 00:07:30;;;;;;;7.80;4.45;;;21.90;94.90;;;;;;5060468;28;20063;-69
2023/06/26 00:10:00;;;;;;;6.60;4.10;;;21.90;94.90;;;;;;5061774;28;20121;-70
2023/06/26 00:12:26;;;;;;;8.82;4.38;;;21.90;95.00;;;;;;5062207;28;20066;-69
2023/06/26 00:14:52;;;;;;;7.15;4.25;;;21.80;94.90;;;;;;5060165;28;20032;-69
2023/06/26 00:17:18;;;;;;;7.93;4.82;;;21.80;94.90;;;;;;5059159;28;20099;-69
2023/06/26 00:19:43;;;;;;;8.13;4.45;;;21.80;94.90;;;;;;5065259;28;20089;-69
2023/06/26 00:22:09;;;;;;;6.90;4.20;;;21.80;94.90;;;;;;5059455;28;20055;-69
2023/06/26 00:24:34;;;;;;;6.10;3.67;;;21.80;94.80;;;;;;5063842;28;20064;-69
2023/06/26 00:27:00;;;;;;;6.68;3.88;;;21.80;94.80;;;;;;5072691;28;20049;-69
2023/06/26 00:29:26;;;;;;;8.95;4.63;;;21.80;94.80;;;;;;5063459;28;20491;-69
2023/06/26 00:31:51;;;;;;;7.15;4.72;;;21.80;94.80;;;;;;5064352;28;20060;-69
2023/06/26 00:34:17;;;;;;;8.20;4.45;;;21.80;94.80;;;;;;5062662;28;20056;-69
2023/06/26 00:36:43;;;;;;;7.80;4.60;;;21.80;94.90;;;;;;5045356;28;20059;-69
2023/06/26 00:39:09;;;;;;;4.68;3.67;;;21.80;94.90;;;;;;5064456;28;20033;-69
2023/06/26 00:41:36;;;;;;;7.13;4.20;;;21.80;94.90;;;;;;5078025;28;20475;-69
2023/06/26 00:44:03;;;;;;;6.28;3.90;;;21.80;94.90;;;;;;5062334;28;20036;-69
2023/06/26 00:46:29;;;;;;;6.95;4.15;;;21.80;94.90;;;;;;5062218;28;20045;-69
2023/06/26 00:48:56;;;;;;;6.80;3.72;;;21.80;94.90;;;;;;5077199;28;20032;-69
2023/06/26 00:51:22;;;;;;;7.22;4.05;;;21.80;94.90;;;;;;5059118;28;20052;-69
2023/06/26 00:53:48;;;;;;;7.88;4.13;;;21.80;94.90;;;;;;5075443;28;20039;-69
2023/06/26 00:56:15;;;;;;;6.68;4.10;;;21.80;94.90;;;;;;5061793;28;20186;-69
2023/06/26 00:58:40;;;;;;;7.35;4.18;;;21.70;94.90;;;;;;5059979;28;20041;-69
2023/06/26 01:01:08;;;;;;;7.40;3.90;;;21.70;95.10;;;;;;5044964;28;20036;-69
2023/06/26 01:03:34;;;;;;;7.85;4.20;;;21.70;94.90;;;;;;5060551;28;20041;-69
2023/06/26 01:06:00;;;;;;;6.97;4.18;;;21.80;95.00;;;;;;5057095;28;20495;-69
2023/06/26 01:08:27;;;;;;;6.40;3.83;;;21.70;95.00;;;;;;5060564;28;20055;-69
2023/06/26 01:10:53;;;;;;;6.18;4.10;;;21.70;95.00;;;;;;5062261;28;20041;-69
2023/06/26 01:13:19;;;;;;;5.25;3.90;;;21.70;95.00;;;;;;5060443;28;20032;-69
2023/06/26 01:15:46;;;;;;;7.45;3.80;;;21.70;95.00;;;;;;5062451;28;20044;-69
2023/06/26 01:18:15;;;;;;;7.75;4.35;;;21.70;95.10;;;;;;5065234;28;20044;-69
2023/06/26 01:20:42;;;;;;;8.05;4.05;;;21.70;95.10;;;;;;5064278;28;20139;-69
2023/06/26 01:23:27;;;;;;;7.65;3.42;;;21.70;95.10;;;;;;5060021;28;20040;-69
2023/06/26 01:26:08;;;;;;;8.52;4.32;;;21.70;95.40;;;;;;5046400;28;20048;-69
2023/06/26 01:28:41;;;;;;;7.63;4.47;;;21.60;95.40;;;;;;5060972;28;20047;-69
2023/06/26 01:31:07;;;;;;;7.10;4.05;;;21.60;95.30;;;;;;5059124;28;20040;-69
2023/06/26 01:33:33;;;;;;;6.40;3.97;;;21.60;95.20;;;;;;5064442;28;20028;-69
2023/06/26 01:35:59;;;;;;;6.53;4.00;;;21.60;95.30;;;;;;5064182;28;20178;-69
2023/06/26 01:38:25;;;;;;;6.72;4.10;;;21.60;95.30;;;;;;5064849;28;20036;-69
2023/06/26 01:40:52;;;;;;;7.95;4.35;;;21.50;95.40;;;;;;5063067;28;20047;-69
2023/06/26 01:43:47;;;;;;;6.63;4.30;;;21.50;95.40;;;;;;5060182;28;20048;-69
2023/06/26 01:46:27;;;;;;;7.37;3.73;;;21.50;95.80;;;;;;5071295;28;20079;-69
2023/06/26 01:49:17;;;;;;;6.28;3.60;;;21.50;95.70;;;;;;5061559;28;20540;-69
2023/06/26 01:52:02;;;;;;;6.40;4.03;;;21.50;95.80;;;;;;5057138;28;20178;-69
2023/06/26 01:54:33;;;;;;;7.43;4.07;;;21.50;95.90;;;;;;5061599;28;20126;-69
2023/06/26 01:57:00;;;;;;;5.97;3.67;;;21.50;95.50;;;;;;5073847;28;20398;-69
2023/06/26 01:59:28;;;;;;;5.53;3.72;;;21.50;95.50;;;;;;5064800;28;20049;-69
2023/06/26 02:01:54;;;;;;;7.70;4.05;;;21.50;95.40;;;;;;5063274;28;20033;-69
2023/06/26 02:04:20;;;;;;;5.65;3.85;;;21.50;95.40;;;;;;5066835;28;20036;-69
2023/06/26 02:06:45;;;;;;;9.45;5.03;;;21.50;95.50;;;;;;5065342;28;20032;-69
2023/06/26 02:09:11;;;;;;;7.03;4.60;;;21.50;95.50;;;;;;5066118;28;20035;-69
2023/06/26 02:11:37;;;;;;;9.23;4.45;;;21.50;95.50;;;;;;5065553;28;20051;-69
2023/06/26 02:14:02;;;;;;;9.13;4.70;;;21.50;95.50;;;;;;5065133;28;20047;-69
2023/06/26 02:16:29;;;;;;;7.57;4.88;;;21.40;95.50;;;;;;5064666;28;20035;-69
2023/06/26 02:18:54;;;;;;;7.03;4.13;;;21.40;95.60;;;;;;5065526;28;20043;-69
2023/06/26 02:21:20;;;;;;;8.02;4.68;;;21.40;95.60;;;;;;5065717;28;21612;-69
2023/06/26 02:23:46;;;;;;;6.68;4.50;;;21.40;95.70;;;;;;5075663;28;20490;-69
2023/06/26 02:26:11;;;;;;;7.15;3.95;;;21.40;95.70;;;;;;5060751;28;20056;-69
2023/06/26 02:28:37;;;;;;;6.93;4.35;;;21.40;95.70;;;;;;5069208;28;20426;-69
2023/06/26 02:31:02;;;;;;;8.55;4.90;;;21.40;95.70;;;;;;5077650;28;20169;-69
2023/06/26 02:33:28;;;;;;;6.07;4.05;;;21.40;95.70;;;;;;5077596;28;20900;-69
2023/06/26 02:35:53;;;;;;;7.10;4.28;;;21.50;95.80;;;;;;5078403;28;20032;-69
2023/06/26 02:38:19;;;;;;;7.10;4.50;;;21.40;95.70;;;;;;5080106;28;20040;-69
2023/06/26 02:40:45;;;;;;;5.65;3.60;;;21.40;95.80;;;;;;5062846;28;20037;-69
2023/06/26 02:43:10;;;;;;;7.88;4.93;;;21.30;95.70;;;;;;5057350;28;20119;-69
2023/06/26 02:45:36;;;;;;;6.45;4.18;;;21.40;95.70;;;;;;5065413;28;20241;-69
2023/06/26 02:48:02;;;;;;;10.45;4.43;;;21.40;95.90;;;;;;5065864;28;20497;-69
2023/06/26 02:50:27;;;;;;;7.10;4.18;;;21.30;95.60;;;;;;5064006;28;20063;-69
2023/06/26 02:52:53;;;;;;;7.53;4.65;;;21.30;95.60;;;;;;5061908;28;20039;-69
2023/06/26 02:55:21;;;;;;;8.02;4.70;;;21.30;95.70;;;;;;5066008;28;20059;-69
2023/06/26 02:57:47;;;;;;;8.05;5.22;;;21.30;95.70;;;;;;5077027;28;20041;-69
2023/06/26 03:00:13;;;;;;;8.20;4.78;;;21.30;95.70;;;;;;5064439;28;21264;-69
2023/06/26 03:02:39;;;;;;;8.65;5.35;;;21.30;95.70;;;;;;5073958;28;20032;-69
2023/06/26 03:05:05;;;;;;;9.52;5.40;;;21.20;95.70;;;;;;5064501;28;20024;-69
2023/06/26 03:07:30;;;;;;;9.30;5.38;;;21.20;95.80;;;;;;5063093;28;20593;-69
2023/06/26 03:09:56;;;;;;;8.68;5.30;;;21.20;95.70;;;;;;5079320;28;20132;-69
2023/06/26 03:12:21;;;;;;;10.02;5.40;;;21.20;95.80;;;;;;5075024;28;20037;-69
2023/06/26 03:14:47;;;;;;;8.50;5.45;;;21.20;95.80;;;;;;5065562;28;20078;-69
2023/06/26 03:17:13;;;;;;;10.38;6.07;;;21.20;95.80;;;;;;5063388;28;20036;-69
2023/06/26 03:19:38;;;;;;;8.15;5.28;;;21.20;95.80;;;;;;5075224;28;20526;-69
2023/06/26 03:22:04;;;;;;;8.13;5.13;;;21.10;95.80;;;;;;5044647;28;20383;-69
2023/06/26 03:24:30;;;;;;;8.15;5.82;;;21.10;95.80;;;;;;5061607;28;20470;-69
2023/06/26 03:26:55;;;;;;;7.80;5.30;;;21.10;95.80;;;;;;5073319;28;20075;-69
2023/06/26 03:29:21;;;;;;;8.93;5.57;;;21.00;95.90;;;;;;5059113;28;20466;-69
2023/06/26 03:31:47;;;;;;;10.05;5.43;;;21.00;95.90;;;;;;5061989;28;20040;-69
2023/06/26 03:34:12;;;;;;;12.52;5.82;;;21.00;95.90;;;;;;5077719;28;20065;-69
2023/06/26 03:36:38;;;;;;;9.07;5.18;;;21.00;95.90;;;;;;5060685;28;20096;-69
2023/06/26 03:39:04;;;;;;;9.57;5.60;;;21.00;96.20;;;;;;5064926;28;20093;-69
2023/06/26 03:41:29;;;;;;;8.45;5.32;;;21.00;96.00;;;;;;5060981;28;20072;-69
2023/06/26 03:43:56;;;;;;;7.28;5.00;;;21.00;96.10;;;;;;5063330;28;20108;-69
2023/06/26 03:46:22;;;;;;;8.30;4.60;;;21.00;96.10;;;;;;5060127;28;20052;-69
2023/06/26 03:48:48;;;;;;;9.25;5.35;;;21.00;96.10;;;;;;5060916;28;20087;-69
2023/06/26 03:51:14;;;;;;;8.77;4.72;;;21.00;96.10;;;;;;5064488;28;20078;-69
2023/06/26 03:53:39;;;;;;;7.38;4.22;;;21.00;96.10;;;;;;5061832;28;20064;-69
2023/06/26 03:56:05;;;;;;;8.55;5.10;;;21.00;96.20;;;;;;5059345;28;20063;-69
2023/06/26 03:58:31;;;;;;;8.27;4.82;;;21.00;96.20;;;;;;5063226;28;20028;-69
2023/06/26 04:00:57;;;;;;;7.78;4.72;;;21.00;96.20;;;;;;5077133;28;20059;-69
2023/06/26 04:03:23;;;;;;;7.75;4.10;;;21.00;96.30;;;;;;5057897;28;20768;-69
2023/06/26 04:05:49;;;;;;;7.35;4.57;;;21.00;96.30;;;;;;5063475;28;20064;-69
2023/06/26 04:08:14;;;;;;;6.95;3.55;;;21.10;96.40;;;;;;5063998;28;20037;-69
2023/06/26 04:10:40;;;;;;;8.32;4.25;;;21.00;96.40;;;;;;5073445;28;20033;-69
2023/06/26 04:13:05;;;;;;;6.82;4.07;;;21.10;96.50;;;;;;5074013;28;20044;-69
2023/06/26 04:15:31;;;;;;;7.13;3.95;;;21.10;96.60;;;;;;5061028;28;20040;-69
2023/06/26 04:17:57;;;;;;;8.27;4.03;;;21.10;96.60;;;;;;5058885;28;20051;-69
2023/06/26 04:20:22;;;;;;;8.25;4.15;;;21.10;96.60;;;;;;5061919;28;20177;-69
2023/06/26 04:22:48;;;;;;;7.25;3.90;;;21.10;96.70;;;;;;5058659;28;20048;-69
2023/06/26 04:25:13;;;;;;;5.88;3.67;;;21.10;96.70;;;;;;5073446;28;20080;-69
2023/06/26 04:27:39;;;;;;;7.45;4.20;;;21.10;96.70;;;;;;5078457;28;20456;-69
2023/06/26 04:30:05;;;;;;;8.20;4.38;;;21.10;96.80;;;;;;5063934;28;20584;-69
2023/06/26 04:32:31;;;;;;;8.48;4.05;;;21.20;96.90;;;;;;5066502;28;20686;-69
2023/06/26 04:34:57;;;;;;;7.60;4.30;;;21.10;97.00;;;;;;5057561;28;20228;-69
2023/06/26 04:37:22;;;;;;;7.35;4.38;;;21.10;97.10;;;;;;5060853;28;20174;-69
2023/06/26 04:39:48;;;;;;;7.00;4.68;;;21.10;97.10;;;;;;5061816;28;20036;-69
2023/06/26 04:42:14;;;;;;;6.65;3.67;;;21.10;97.20;;;;;;5061783;28;20036;-69
2023/06/26 04:44:40;;;;;;;8.52;4.68;;;21.10;97.30;;;;;;5074643;28;20248;-69
2023/06/26 04:47:07;;;;;;;9.98;4.43;;;21.10;97.40;;;;;;5062577;28;20067;-69
2023/06/26 04:49:33;;;;;;;7.95;4.03;;;21.10;97.50;;;;;;5063457;28;20036;-68
2023/06/26 04:51:59;;;;;;;7.25;4.55;;;21.10;97.50;;;;;;5061180;28;20109;-69
2023/06/26 04:54:26;;;;;;;7.65;3.97;;;21.10;97.60;;;;;;5059286;28;20028;-69
2023/06/26 04:56:51;;;;;;;8.30;4.28;;;21.20;97.80;;;;;;5036646;28;20079;-69
2023/06/26 04:59:17;;;;;;;8.45;3.92;;;21.30;97.90;;;;;;5061083;28;20044;-69
2023/06/26 05:01:47;;;;;;;8.73;3.72;;;21.30;97.90;;;;;;5064022;28;20079;-69
2023/06/26 05:04:13;;;;;;;8.25;3.45;;;21.40;98.00;;;;;;5060492;28;20040;-69
2023/06/26 05:06:39;;;;;;;5.82;3.30;;;21.40;98.10;;;;;;5057860;28;20063;-69
2023/06/26 05:09:05;;;;;;;5.65;3.13;;;21.40;98.10;;;;;;5054953;28;20029;-69
2023/06/26 05:11:30;;;;;;;8.38;3.33;;;21.40;98.20;;;;;;5074947;28;20075;-69
2023/06/26 05:13:56;;;;;;;8.35;3.50;;;21.30;98.30;;;;;;5060589;28;20036;-70
2023/06/26 05:16:21;;;;;;;6.55;3.40;;;21.40;98.40;;;;;;5062595;28;20526;-69
2023/06/26 05:18:47;;;;;;;8.50;3.28;;;21.40;98.50;;;;;;5076716;28;20045;-69
2023/06/26 05:21:13;;;;;;;5.65;2.85;;;21.30;98.60;;;;;;5061401;28;20533;-69
2023/06/26 05:23:39;;;;;;;6.43;2.83;;;21.30;98.70;;;;;;5053252;28;20049;-69
2023/06/26 05:26:05;;;;;;;10.07;3.45;;;21.30;98.90;;;;;;5063857;28;20059;-69
2023/06/26 05:28:31;;;;;;;6.20;2.70;;;21.30;98.90;;;;;;5059100;28;20040;-70
2023/06/26 05:30:58;;;;;;;6.07;3.05;;;21.20;99.00;;;;;;5072204;28;20120;-69
2023/06/26 05:33:26;;;;;;;4.82;2.60;;;21.20;99.00;;;;;;5058383;28;20059;-70
2023/06/26 05:35:52;;;;;;;8.05;2.90;;;21.20;99.10;;;;;;5059308;28;20421;-69
2023/06/26 05:38:18;;;;;;;6.80;3.10;;;21.20;99.10;;;;;;5075583;28;20036;-70
2023/06/26 05:40:44;;;;;;;10.35;2.97;;;21.20;99.20;;;;;;5059112;28;20086;-69
2023/06/26 05:43:10;;;;;;;6.38;2.53;;;21.20;99.20;;;;;;5066033;28;20048;-69
2023/06/26 05:45:36;;;;;;;7.45;2.97;;;21.20;99.30;;;;;;5062113;28;20343;-69
2023/06/26 05:48:01;;;;;;;7.65;3.28;;;21.30;99.20;;;;;;5062046;28;20557;-69
2023/06/26 05:50:28;;;;;;;6.93;2.90;;;21.20;99.20;;;;;;5080915;28;20044;-69
2023/06/26 05:52:54;;;;;;;6.45;2.63;;;21.20;99.30;;;;;;5064326;28;20105;-69
2023/06/26 05:55:20;;;;;;;6.88;2.83;;;21.20;99.30;;;;;;5056964;28;20032;-69
2023/06/26 05:57:47;;;;;;;9.20;3.05;;;21.20;99.40;;;;;;5062684;28;20079;-69
2023/06/26 06:00:13;;;;;;;6.10;3.05;;;21.20;99.40;;;;;;5080003;28;20066;-69
2023/06/26 06:02:39;;;;;;;5.78;2.60;;;21.10;99.40;;;;;;5063001;28;20047;-69
2023/06/26 06:05:06;;;;;;;7.28;2.42;;;21.10;99.50;;;;;;5060583;28;20047;-69
2023/06/26 06:07:35;;;;;;;7.43;2.47;;;21.10;99.50;;;;;;5072352;28;20139;-69
2023/06/26 06:10:02;;;;;;;5.00;2.25;;;21.00;99.50;;;;;;5067550;28;20333;-69
2023/06/26 06:12:28;;;;;;;3.83;1.92;;;20.90;99.50;;;;;;5066576;28;20039;-69
2023/06/26 06:14:54;;;;;;;7.93;2.90;;;20.80;99.50;;;;;;5043992;28;20036;-69
2023/06/26 06:17:20;;;;;;;5.45;2.35;;;20.80;99.60;;;;;;5066677;28;20029;-70
2023/06/26 06:19:46;;;;;;;5.07;2.35;;;20.80;99.60;;;;;;5072299;28;20040;-69
2023/06/26 06:22:11;;;;;;;5.30;2.10;;;20.80;99.60;;;;;;5061074;28;20066;-69
2023/06/26 06:24:37;;;;;;;3.97;1.73;;;20.80;99.60;;;;;;5073839;28;20067;-69
2023/06/26 06:27:03;;;;;;;4.72;1.70;;;20.70;99.60;;;;;;5066004;28;20062;-69
2023/06/26 06:29:28;;;;;;;6.07;1.73;;;20.80;99.40;;;;;;5056928;28;20040;-69
2023/06/26 06:31:54;;;;;;;2.88;1.55;;;20.80;99.10;;;;;;5060645;28;20033;-70
2023/06/26 06:34:20;;;;;;;3.97;1.40;;;20.80;98.70;;;;;;5061761;28;20517;-70
2023/06/26 06:36:46;;;;;;;3.45;1.42;;;20.90;98.70;;;;;;5069688;28;20040;-70
2023/06/26 06:39:11;;;;;;;4.07;1.25;;;21.30;98.40;;;;;;5064572;28;20131;-69
2023/06/26 06:41:38;;;;;;;4.65;1.27;;;21.90;97.60;;;;;;5074480;28;20086;-70
2023/06/26 06:44:03;;;;;;;5.03;1.13;;;22.50;96.80;;;;;;5063914;28;20032;-70
2023/06/26 06:46:29;;;;;;;4.15;1.27;;;23.00;96.00;;;;;;5059755;28;20043;-70
2023/06/26 06:48:56;;;;;;;3.50;1.60;;;23.50;95.00;;;;;;5075281;28;20037;-70
2023/06/26 06:51:22;;;;;;;4.63;1.00;;;23.90;93.80;;;;;;5060187;28;20058;-70
2023/06/26 06:53:47;;;;;;;3.42;0.90;;;24.20;92.80;;;;;;5076960;28;20037;-70
2023/06/26 06:56:13;;;;;;;3.03;0.98;;;24.10;92.60;;;;;;5076093;28;20489;-70
2023/06/26 06:58:42;;;;;;;2.17;0.73;;;23.70;92.80;;;;;;5063024;28;20165;-70
2023/06/26 07:01:09;;;;;;;4.00;0.77;;;23.40;92.90;;;;;;5068274;28;20120;-70
2023/06/26 07:03:34;;;;;;;4.53;0.82;;;23.10;93.00;;;;;;5075308;28;20051;-70
2023/06/26 07:06:00;;;;;;;3.30;1.25;;;22.80;92.90;;;;;;5056507;28;20052;-70
2023/06/26 07:08:26;;;;;;;3.92;1.15;;;22.50;92.90;;;;;;5062008;28;20041;-70
2023/06/26 07:10:51;;;;;;;2.72;0.80;;;22.30;93.10;;;;;;5075399;28;20399;-70
2023/06/26 07:13:17;;;;;;;2.45;0.90;;;22.20;93.20;;;;;;5065372;28;20028;-70
2023/06/26 07:15:43;;;;;;;2.97;0.57;;;22.00;93.20;;;;;;5056220;28;20123;-70
2023/06/26 07:18:09;;;;;;;7.88;0.98;;;22.00;93.40;;;;;;5063429;28;20435;-70
2023/06/26 07:20:34;;;;;;;1.55;0.85;;;22.00;93.30;;;;;;5060388;28;20037;-69
2023/06/26 07:23:00;;;;;;;3.15;1.00;;;21.90;93.20;;;;;;5063627;28;20500;-69
2023/06/26 07:25:26;;;;;;;4.72;0.80;;;22.00;93.10;;;;;;5051723;28;20049;-70
2023/06/26 07:27:51;;;;;;;2.38;0.70;;;21.90;93.20;;;;;;5060652;28;20048;-69
2023/06/26 07:30:17;;;;;;;3.30;0.70;;;22.00;93.20;;;;;;5055932;28;20045;-70
2023/06/26 07:32:45;;;;;;;2.95;1.10;;;22.00;93.10;;;;;;5059724;28;20024;-70
2023/06/26 07:35:11;;;;;;;4.57;0.63;;;21.90;93.00;;;;;;5038485;28;20526;-70
2023/06/26 07:37:36;;;;;;;3.45;0.70;;;21.90;92.90;;;;;;5074603;28;20037;-69
2023/06/26 07:40:02;;;;;;;2.22;0.70;;;21.80;92.60;;;;;;5072320;28;20040;-69
2023/06/26 07:42:28;;;;;;;2.28;0.60;;;21.80;92.70;;;;;;5059284;28;20501;-70
2023/06/26 07:44:53;;;;;;;2.80;1.10;;;21.80;92.30;;;;;;5073327;28;20606;-70
2023/06/26 07:47:19;;;;;;;1.95;0.70;;;21.80;91.90;;;;;;5061376;28;20028;-70
2023/06/26 07:49:45;;;;;;;2.67;0.60;;;21.80;91.70;;;;;;5065011;28;20121;-70
2023/06/26 07:52:11;;;;;;;2.05;0.65;;;21.70;91.40;;;;;;5054822;28;20055;-70
2023/06/26 07:54:37;;;;;;;3.88;0.80;;;21.70;91.20;;;;;;5063104;28;20485;-70
2023/06/26 07:57:06;;;;;;;3.05;0.88;;;21.70;91.10;;;;;;5069873;28;20387;-70
2023/06/26 07:59:33;;;;;;;2.33;0.88;;;21.70;91.00;;;;;;5061152;28;20098;-70
2023/06/26 08:01:59;;;;;;;3.10;0.80;;;21.60;90.90;;;;;;5035986;28;20051;-69
2023/06/26 08:04:27;;;;;;;1.45;0.52;;;21.60;91.10;;;;;;5064639;28;20429;-70
2023/06/26 08:06:55;;;;;;;1.38;0.60;;;21.70;91.10;;;;;;5062434;28;20040;-69
2023/06/26 08:09:23;;;;;;;1.33;0.63;;;21.70;90.90;;;;;;5058490;28;20040;-70
2023/06/26 08:11:49;;;;;;;1.17;0.70;;;21.70;90.90;;;;;;5057189;28;20131;-69
2023/06/26 08:14:15;;;;;;;2.28;0.77;;;21.80;90.90;;;;;;5058949;28;20089;-69
2023/06/26 08:16:42;;;;;;;1.77;0.70;;;21.80;90.70;;;;;;5078084;28;20127;-70
2023/06/26 08:19:08;;;;;;;2.78;0.57;;;21.70;90.60;;;;;;5053300;28;20048;-69
2023/06/26 08:21:34;;;;;;;3.70;0.77;;;21.70;90.70;;;;;;5057120;28;20486;-69
2023/06/26 08:23:59;;;;;;;1.45;0.52;;;21.70;90.80;;;;;;5061188;28;20028;-70
2023/06/26 08:26:25;;;;;;;2.55;0.68;;;21.80;90.80;;;;;;5062348;28;20109;-69
2023/06/26 08:28:51;;;;;;;1.70;0.60;;;21.70;90.80;;;;;;5056953;28;20052;-69
2023/06/26 08:31:17;;;;;;;1.60;0.63;;;21.80;90.70;;;;;;5058884;28;20143;-70
2023/06/26 08:33:43;;;;;;;2.95;0.55;;;21.90;90.80;;;;;;5054813;28;20080;-69
2023/06/26 08:36:08;;;;;;;1.88;0.77;;;21.90;90.80;;;;;;5059221;28;20441;-70
2023/06/26 08:38:34;;;;;;;2.20;0.90;;;22.00;90.70;;;;;;5070538;28;20043;-69
2023/06/26 08:41:00;;;;;;;4.28;0.68;;;22.00;90.70;;;;;;5058111;28;20040;-69
2023/06/26 08:43:26;;;;;;;1.35;0.60;;;22.00;90.70;;;;;;5059233;28;20037;-69
2023/06/26 08:45:52;;;;;;;2.20;0.60;;;22.00;90.60;;;;;;5062095;28;20050;-69
2023/06/26 08:48:20;;;;;;;2.88;0.80;;;22.00;90.70;;;;;;5067875;28;20040;-70
2023/06/26 08:50:49;;;;;;;2.25;0.77;;;21.90;90.70;;;;;;5045327;28;20103;-69
2023/06/26 08:53:27;;;;;;;1.77;0.70;;;21.90;90.70;;;;;;5058074;28;20033;-70
2023/06/26 08:55:53;;;;;;;1.70;0.60;;;21.90;90.50;;;;;;5072933;28;20394;-70
2023/06/26 08:58:19;;;;;;;2.03;0.80;;;21.80;90.80;;;;;;5061658;28;20270;-70
2023/06/26 09:00:45;;;;;;;2.38;0.88;;;21.80;90.70;;;;;;5054693;28;20710;-69
2023/06/26 09:03:13;;;;;;;2.47;0.93;;;21.80;90.70;;;;;;5062310;28;20197;-69
2023/06/26 09:05:38;;;;;;;2.05;0.70;;;21.80;90.80;;;;;;5053387;28;20044;-70
2023/06/26 09:08:04;;;;;;;3.95;1.05;;;21.90;90.90;;;;;;5057927;28;20036;-70
2023/06/26 09:10:30;;;;;;;4.40;1.05;;;21.90;90.60;;;;;;5048045;28;20689;-70
2023/06/26 09:13:01;;;;;;;3.05;1.20;;;21.80;90.50;;;;;;5057104;28;20526;-71
2023/06/26 09:15:28;;;;;;;2.33;0.80;;;21.60;90.20;;;;;;5061246;28;20098;-72
2023/06/26 09:17:57;;;;;;;3.10;0.77;;;21.60;90.80;;;;;;5056849;28;20069;-72
2023/06/26 09:20:22;;;;;;;3.47;0.90;;;21.60;90.60;;;;;;5054899;28;20058;-72
2023/06/26 09:22:48;;;;;;;2.03;1.08;;;21.80;90.70;;;;;;5069336;28;20040;-72
2023/06/26 09:25:14;;;;;;;3.78;0.90;;;21.80;90.40;;;;;;5072151;28;20110;-72
2023/06/26 09:27:42;;;;;;;3.53;1.23;;;21.80;90.30;;;;;;5070218;28;20072;-72
2023/06/26 09:30:08;;;;;;;2.05;0.80;;;21.80;90.30;;;;;;5056985;28;20398;-72
2023/06/26 09:32:37;;;;;;;4.75;1.10;;;21.80;90.30;;;;;;5069084;28;20036;-73
2023/06/26 09:35:03;;;;;;;2.42;0.82;;;21.70;90.20;;;;;;5057339;28;20040;-72
2023/06/26 09:37:29;;;;;;;5.35;1.05;;;21.80;90.30;;;;;;5068769;28;20115;-70
2023/06/26 09:39:55;;;;;;;2.50;0.90;;;21.90;90.20;;;;;;5054186;28;20036;-70
2023/06/26 09:42:21;;;;;;;2.63;0.90;;;21.80;90.00;;;;;;5057814;28;20040;-70
2023/06/26 09:44:48;;;;;;;5.90;1.20;;;21.80;90.00;;;;;;5054475;28;20189;-70
2023/06/26 09:47:19;;;;;;;2.63;1.15;;;21.80;90.10;;;;;;5062457;28;20055;-69
2023/06/26 09:49:45;;;;;;;3.10;0.98;;;21.80;89.80;;;;;;5066739;28;20048;-70
2023/06/26 09:52:19;;;;;;;2.83;1.00;;;21.90;90.00;;;;;;5037471;28;20482;-70
2023/06/26 09:54:45;;;;;;;4.03;1.00;;;21.90;89.70;;;;;;5055662;28;20064;-70
2023/06/26 09:57:16;;;;;;;3.83;1.17;;;21.90;89.30;;;;;;5069692;28;20093;-70
2023/06/26 09:59:45;;;;;;;1.90;0.80;;;21.90;87.90;;;;;;5067123;28;20040;-70
2023/06/26 10:02:11;;;;;;;2.53;0.85;;;22.00;88.00;;;;;;5055183;28;20044;-71
2023/06/26 10:04:38;;;;;;;2.65;0.90;;;21.90;87.60;;;;;;5058632;28;20040;-70
2023/06/26 10:07:10;;;;;;;2.13;0.80;;;22.00;87.70;;;;;;5061631;28;20032;-71
2023/06/26 10:09:40;;;;;;;3.97;1.05;;;22.00;87.20;;;;;;5072417;28;20044;-70
2023/06/26 10:12:11;;;;;;;5.32;0.90;;;22.00;87.40;;;;;;5052628;28;20178;-71
2023/06/26 10:14:41;;;;;;;4.78;1.00;;;21.90;87.70;;;;;;5066823;28;20061;-70
2023/06/26 10:17:13;;;;;;;3.13;1.10;;;21.90;87.50;;;;;;5061351;28;20088;-70
2023/06/26 10:19:43;;;;;;;3.88;0.77;;;21.90;87.00;;;;;;5058526;28;20037;-70
2023/06/26 10:22:12;;;;;;;6.18;1.20;;;22.00;86.90;;;;;;5055735;28;20044;-70
2023/06/26 10:24:39;;;;;;;3.35;1.65;;;22.00;86.60;;;;;;5063192;28;20417;-70
2023/06/26 10:27:18;;;;;;;3.20;1.08;;;22.10;86.50;;;;;;5075577;28;20485;-70
2023/06/26 10:29:52;;;;;;;1.98;0.98;;;22.10;83.30;;;;;;5060462;28;20063;-70
2023/06/26 10:32:20;;;;;;;2.83;1.10;;;22.10;84.10;;;;;;5064968;28;20036;-71
2023/06/26 10:34:46;;;;;;;1.77;1.00;;;22.20;84.10;;;;;;5062649;28;20501;-70
2023/06/26 10:37:12;;;;;;;4.25;1.10;;;22.10;83.90;;;;;;5073012;28;20075;-70
2023/06/26 10:39:54;;;;;;;2.53;1.20;;;22.10;83.60;;;;;;5048874;28;20044;-71
2023/06/26 10:42:33;;;;;;;2.97;1.30;;;22.00;81.80;;;;;;5060067;28;21022;-71
2023/06/26 10:45:10;;;;;;;2.60;1.00;;;22.00;83.60;;;;;;5057789;28;20044;-71
2023/06/26 10:47:36;;;;;;;3.03;1.10;;;21.90;83.40;;;;;;5054834;28;20256;-70
2023/06/26 10:50:24;;;;;;;3.00;1.10;;;21.90;83.90;;;;;;5058400;28;20040;-70
2023/06/26 10:53:09;;;;;;;3.47;1.10;;;22.00;83.60;;;;;;5076180;28;20304;-71
2023/06/26 10:55:36;;;;;;;2.67;1.10;;;22.00;83.00;;;;;;5071988;28;20051;-71
2023/06/26 10:58:02;;;;;;;2.55;0.93;;;22.00;83.30;;;;;;5063486;28;20287;-71
2023/06/26 11:00:28;;;;;;;4.05;1.02;;;21.90;82.50;;;;;;5062969;28;20036;-71
2023/06/26 11:02:54;;;;;;;1.88;0.90;;;21.90;82.50;;;;;;5071376;28;20052;-71
2023/06/26 11:05:27;;;;;;;1.67;0.70;;;21.90;82.00;;;;;;5063480;28;20450;-69
2023/06/26 11:08:03;;;;;;;4.57;0.77;;;21.90;80.40;;;;;;5061326;28;20040;-69
2023/06/26 11:10:28;;;;;;;;;;;21.90;79.80;;;;;;5057175;28;20044;-69
2023/06/26 11:12:57;;;;;;;3.45;1.02;;;21.90;80.00;;;;;;5062278;28;20289;-69
2023/06/26 11:15:26;;;;;;;3.03;0.98;;;22.00;81.30;;;;;;5064746;28;20051;-69
2023/06/26 11:17:53;;;;;;;3.35;1.00;;;22.10;80.90;;;;;;5063260;28;20032;-70
2023/06/26 11:20:18;;;;;;;3.63;0.82;;;22.10;80.60;;;;;;5066397;28;20032;-70
2023/06/26 11:22:44;;;;;;;2.17;0.70;;;22.20;80.20;;;;;;5047015;28;20051;-71
2023/06/26 11:25:10;;;;;;;2.95;1.00;;;22.20;79.50;;;;;;5069905;28;20175;-70
2023/06/26 11:27:43;;;;;;;2.42;0.70;;;22.30;79.50;;;;;;5062593;28;20048;-70
2023/06/26 11:30:11;;;;;;;4.35;0.70;;;22.20;77.70;;;;;;5052948;28;20039;-70
2023/06/26 11:32:38;;;;;;;2.47;0.95;;;22.20;76.80;;;;;;5060848;28;20040;-70
2023/06/26 11:35:04;;;;;;;1.33;0.60;;;22.10;76.40;;;;;;5046215;28;20247;-70
2023/06/26 11:37:31;;;;;;;3.35;0.68;;;22.10;76.00;;;;;;5073222;28;20123;-70
2023/06/26 11:39:57;;;;;;;2.28;0.70;;;22.20;75.10;;;;;;5043998;28;20155;-70
2023/06/26 11:42:25;;;;;;;2.38;0.80;;;22.40;75.20;;;;;;5074078;28;20052;-70
2023/06/26 11:44:51;;;;;;;2.40;0.77;;;22.40;74.00;;;;;;5057134;28;20044;-70
2023/06/26 11:47:18;;;;;;;5.50;0.60;;;22.40;73.90;;;;;;5065053;28;20514;-70
2023/06/26 11:49:45;;;;;;;2.45;1.00;;;22.40;73.90;;;;;;5059715;28;20502;-71
2023/06/26 11:52:11;;;;;;;2.15;0.75;;;22.30;73.60;;;;;;5052565;28;20099;-70
2023/06/26 11:54:37;;;;;;;0.88;0.50;;;22.40;73.10;;;;;;5038213;28;20048;-70
2023/06/26 11:57:03;;;;;;;2.30;0.60;;;22.40;73.00;;;;;;5058308;28;20087;-71
2023/06/26 11:59:35;;;;;;;2.42;0.50;;;22.50;72.80;;;;;;5074497;28;20040;-71
2023/06/26 12:02:05;;;;;;;1.38;0.40;;;22.50;72.30;;;;;;5055947;28;20528;-71
2023/06/26 12:04:31;;;;;;;2.20;0.55;;;22.50;71.60;;;;;;5059519;28;20586;-71
2023/06/26 12:06:57;;;;;;;1.55;0.70;;;22.60;73.00;;;;;;5059177;28;20036;-71
2023/06/26 12:09:24;;;;;;;2.05;0.50;;;22.60;72.60;;;;;;5061491;28;20044;-71
2023/06/26 12:11:53;;;;;;;1.05;0.52;;;22.60;73.00;;;;;;5058054;28;20041;-70
2023/06/26 12:14:20;;;;;;;0.82;0.38;;;22.50;73.20;;;;;;5057627;28;20536;-70
2023/06/26 12:16:47;;;;;;;1.85;0.40;;;22.50;72.20;;;;;;5059151;28;20040;-71
2023/06/26 12:19:13;;;;;;;1.30;0.40;;;22.40;71.50;;;;;;5057183;28;20112;-71
2023/06/26 12:21:41;;;;;;;2.08;0.40;;;22.40;71.20;;;;;;5064404;28;20082;-70
2023/06/26 12:24:14;;;;;;;2.03;0.40;;;22.30;70.60;;;;;;5075704;28;20079;-71
2023/06/26 12:26:43;;;;;;;1.25;0.38;;;22.20;69.10;;;;;;5071451;28;20051;-68
2023/06/26 12:29:12;;;;;;;0.70;0.40;;;22.20;69.60;;;;;;5056705;28;20052;-71
2023/06/26 12:31:42;;;;;;;2.67;0.45;;;22.30;69.40;;;;;;5059155;28;20106;-71
2023/06/26 12:34:18;;;;;;;2.50;0.70;;;22.30;69.40;;;;;;5058989;28;20510;-71
2023/06/26 12:36:48;;;;;;;5.63;0.60;;;22.50;69.60;;;;;;5056297;28;20044;-71
2023/06/26 12:39:16;;;;;;;1.85;0.82;;;22.50;69.50;;;;;;5053230;28;20045;-70
2023/06/26 12:41:48;;;;;;;1.60;0.47;;;22.60;69.40;;;;;;5057482;28;20044;-71
2023/06/26 12:44:33;;;;;;;1.45;0.40;;;22.60;68.50;;;;;;5052909;28;20089;-71
2023/06/26 12:47:00;;;;;;;0.70;0.30;;;22.60;65.20;;;;;;5071893;28;20036;-70